This is the latest recevied weather packets stored in our database for station/object IU1OLT-5. If no packets are shown the sender has not sent any weather packets the latest 10 day(s).
| Time | Temp. | Humidity | Pressure | Rain* | Wind** | Luminosity | Snow |
|---|---|---|---|---|---|---|---|
| 1777704084 | 15.56° C | 52% | 1026.1 hPa | 0 mm | - | 266 W/m² | - |
| 1777703184 | 14.44° C | 56% | 1026.1 hPa | 0 mm | - | 225 W/m² | - |
| 1777702284 | 13.89° C | 51% | 1026 hPa | 0 mm | - | 184 W/m² | - |
| 1777701384 | 13.89° C | 48% | 1026 hPa | 0 mm | - | 145 W/m² | - |
| 1777700484 | 13.89° C | 49% | 1026.1 hPa | 0 mm | - | 110 W/m² | - |
| 1777699584 | 13.33° C | 49% | 1026 hPa | 0 mm | - | 81 W/m² | - |
| 1777698684 | 12.78° C | 52% | 1025.8 hPa | 0 mm | - | 55 W/m² | - |
| 1777697783 | 12.22° C | 51% | 1025.6 hPa | 0 mm | - | 35 W/m² | - |
| 1777696883 | 11.67° C | 53% | 1025.8 hPa | 0 mm | - | 20 W/m² | - |
| 1777695983 | 11.11° C | 55% | 1025.9 hPa | 0 mm | - | 8 W/m² | - |
| 1777695082 | 11.67° C | 52% | 1025.9 hPa | 0 mm | - | 2 W/m² | - |
| 1777694182 | 11.67° C | 51% | 1025.8 hPa | 0 mm | - | 0 W/m² | - |
| 1777693282 | 12.22° C | 52% | 1025.6 hPa | 0 mm | - | 0 W/m² | - |
| 1777692381 | 12.22° C | 51% | 1025.6 hPa | 0 mm | - | 0 W/m² | - |
| 1777691481 | 12.78° C | 51% | 1025.5 hPa | 0 mm | - | 0 W/m² | - |
| 1777690580 | 12.22° C | 52% | 1025.7 hPa | 0 mm | - | 0 W/m² | - |
| 1777689680 | 12.22° C | 52% | 1025.7 hPa | 0 mm | - | 0 W/m² | - |
| 1777688780 | 11.67° C | 52% | 1025.7 hPa | 0 mm | - | 0 W/m² | - |
| 1777687880 | 12.22° C | 49% | 1025.6 hPa | 0 mm | - | 0 W/m² | - |
| 1777686980 | 12.22° C | 51% | 1025.6 hPa | 0 mm | - | 0 W/m² | - |
| 1777686080 | 12.22° C | 51% | 1025.6 hPa | 0 mm | - | 0 W/m² | - |
| 1777685179 | 12.22° C | 52% | 1025.5 hPa | 0 mm | - | 0 W/m² | - |
| 1777684279 | 12.78° C | 50% | 1025.7 hPa | 0 mm | - | 0 W/m² | - |
| 1777683379 | 12.78° C | 49% | 1025.7 hPa | 0 mm | - | 0 W/m² | - |
| 1777682479 | 12.78° C | 49% | 1025.6 hPa | 0 mm | - | 0 W/m² | - |
* Rain latest hour (hover to see other rain measurements)
** Current wind speed in m/s (hover to see current wind gust speed)